UAL462 KORD-KMKE
Flight info
| Callsign | UAL462 |
|---|---|
| Flight time | 0h 25m |
| Altitude | 7000 |
| Route | RAYNR BRTMN TAAYZ/N0272F060 |
| Aircraft | B736/M-SDE2E3FGHIRWXY/LB1 |
Departure
| Time | 2026-04-12 05:11 |
|---|---|
| Airport | Chicago O'Hare International Airport (KORD) |
Arrival
| Time | 2026-04-12 05:36 |
|---|---|
| Airport | General Mitchell International Airport (KMKE) |
| Time | Latitude | Longitude | Altitude | Speed | Heading |
|---|---|---|---|---|---|
| 2026-04-12 04:17 | 41.97790 | -87.90757 | 668 ft | 0 kts | 111° |
| 2026-04-12 05:03 | 41.97792 | -87.90765 | 686 ft | 4 kts | 112° |
| 2026-04-12 05:03 | 41.97804 | -87.90797 | 667 ft | 4 kts | 124° |
| 2026-04-12 05:03 | 41.97821 | -87.90823 | 665 ft | 4 kts | 154° |
| 2026-04-12 05:04 | 41.97838 | -87.90829 | 665 ft | 0 kts | 189° |
| 2026-04-12 05:06 | 41.97835 | -87.90829 | 666 ft | 4 kts | 189° |
| 2026-04-12 05:06 | 41.97711 | -87.90856 | 668 ft | 22 kts | 191° |
| 2026-04-12 05:06 | 41.97598 | -87.90971 | 668 ft | 22 kts | 249° |
| 2026-04-12 05:06 | 41.97548 | -87.91126 | 666 ft | 8 kts | 216° |
| 2026-04-12 05:07 | 41.97478 | -87.91147 | 668 ft | 17 kts | 152° |
| 2026-04-12 05:07 | 41.97390 | -87.91086 | 666 ft | 6 kts | 203° |
| 2026-04-12 05:07 | 41.97319 | -87.91233 | 668 ft | 34 kts | 227° |
| 2026-04-12 05:07 | 41.97246 | -87.91525 | 668 ft | 35 kts | 268° |
| 2026-04-12 05:08 | 41.97244 | -87.91851 | 668 ft | 34 kts | 270° |
| 2026-04-12 05:08 | 41.97245 | -87.92057 | 668 ft | 32 kts | 272° |
| 2026-04-12 05:08 | 41.97243 | -87.92347 | 668 ft | 30 kts | 269° |
| 2026-04-12 05:08 | 41.97238 | -87.92699 | 668 ft | 27 kts | 268° |
| 2026-04-12 05:09 | 41.97241 | -87.92945 | 668 ft | 25 kts | 269° |
| 2026-04-12 05:09 | 41.97230 | -87.93101 | 668 ft | 23 kts | 256° |
| 2026-04-12 05:09 | 41.97130 | -87.93129 | 668 ft | 15 kts | 178° |
| 2026-04-12 05:09 | 41.97029 | -87.93126 | 669 ft | 14 kts | 185° |
| 2026-04-12 05:10 | 41.96934 | -87.93121 | 670 ft | 14 kts | 156° |
| 2026-04-12 05:10 | 41.96904 | -87.92975 | 669 ft | 40 kts | 90° |
| 2026-04-12 05:10 | 41.96899 | -87.92099 | 668 ft | 145 kts | 90° |
| 2026-04-12 05:10 | 41.96847 | -87.90467 | 1201 ft | 194 kts | 96° |
| 2026-04-12 05:11 | 41.96912 | -87.88514 | 2275 ft | 231 kts | 79° |
| 2026-04-12 05:11 | 41.97912 | -87.86673 | 3223 ft | 261 kts | 39° |
| 2026-04-12 05:11 | 41.99658 | -87.85815 | 3941 ft | 282 kts | 1° |
| 2026-04-12 05:11 | 42.01637 | -87.85994 | 4898 ft | 288 kts | 349° |
| 2026-04-12 05:12 | 42.03636 | -87.86209 | 6150 ft | 287 kts | 351° |
| 2026-04-12 05:12 | 42.05622 | -87.86268 | 7430 ft | 285 kts | 354° |
| 2026-04-12 05:12 | 42.07618 | -87.86195 | 8533 ft | 289 kts | 356° |
| 2026-04-12 05:12 | 42.09637 | -87.86019 | 9650 ft | 292 kts | 358° |
| 2026-04-12 05:13 | 42.11678 | -87.85775 | 10613 ft | 300 kts | 359° |
| 2026-04-12 05:13 | 42.13848 | -87.85480 | 10949 ft | 329 kts | 1° |
| 2026-04-12 05:13 | 42.16227 | -87.85122 | 11229 ft | 356 kts | 2° |
| 2026-04-12 05:13 | 42.18690 | -87.84719 | 11926 ft | 366 kts | 3° |
| 2026-04-12 05:14 | 42.21246 | -87.84284 | 12603 ft | 371 kts | 3° |
| 2026-04-12 05:14 | 42.23822 | -87.83841 | 12960 ft | 375 kts | 3° |
| 2026-04-12 05:14 | 42.26477 | -87.83390 | 12999 ft | 395 kts | 3° |
| 2026-04-12 05:14 | 42.29268 | -87.82920 | 13007 ft | 410 kts | 3° |
| 2026-04-12 05:15 | 42.32117 | -87.82439 | 12995 ft | 411 kts | 3° |
| 2026-04-12 05:15 | 42.34962 | -87.82043 | 12990 ft | 410 kts | 1° |
| 2026-04-12 05:15 | 42.37764 | -87.81707 | 12992 ft | 409 kts | 1° |
| 2026-04-12 05:15 | 42.40606 | -87.81368 | 12996 ft | 410 kts | 1° |
| 2026-04-12 05:16 | 42.43422 | -87.81014 | 12974 ft | 398 kts | 1° |
| 2026-04-12 05:16 | 42.46120 | -87.80662 | 12974 ft | 380 kts | 1° |
| 2026-04-12 05:16 | 42.48719 | -87.80468 | 12989 ft | 372 kts | 355° |
| 2026-04-12 05:16 | 42.51296 | -87.80603 | 12991 ft | 369 kts | 352° |
| 2026-04-12 05:17 | 42.53852 | -87.80806 | 13016 ft | 365 kts | 352° |
| 2026-04-12 05:17 | 42.56379 | -87.81012 | 13006 ft | 364 kts | 352° |
| 2026-04-12 05:17 | 42.58904 | -87.81206 | 12591 ft | 368 kts | 352° |
| 2026-04-12 05:17 | 42.61476 | -87.81387 | 12035 ft | 371 kts | 353° |
| 2026-04-12 05:18 | 42.64048 | -87.81557 | 11432 ft | 369 kts | 353° |
| 2026-04-12 05:18 | 42.66601 | -87.81718 | 10873 ft | 364 kts | 353° |
| 2026-04-12 05:18 | 42.69098 | -87.81874 | 10740 ft | 357 kts | 353° |
| 2026-04-12 05:18 | 42.71576 | -87.82032 | 10578 ft | 355 kts | 353° |
| 2026-04-12 05:19 | 42.74047 | -87.82196 | 10422 ft | 355 kts | 352° |
| 2026-04-12 05:19 | 42.76514 | -87.82376 | 10273 ft | 354 kts | 352° |
| 2026-04-12 05:19 | 42.78972 | -87.82560 | 10113 ft | 353 kts | 352° |
| 2026-04-12 05:19 | 42.81404 | -87.82743 | 9829 ft | 356 kts | 352° |
| 2026-04-12 05:20 | 42.83896 | -87.82931 | 9389 ft | 359 kts | 352° |
| 2026-04-12 05:20 | 42.86384 | -87.83116 | 8969 ft | 356 kts | 352° |
| 2026-04-12 05:20 | 42.88843 | -87.83297 | 8551 ft | 352 kts | 352° |
| 2026-04-12 05:20 | 42.91282 | -87.83476 | 8125 ft | 348 kts | 353° |
| 2026-04-12 05:21 | 42.93700 | -87.83655 | 7726 ft | 346 kts | 353° |
| 2026-04-12 05:21 | 42.96109 | -87.83834 | 7316 ft | 345 kts | 353° |
| 2026-04-12 05:21 | 42.98481 | -87.84011 | 6892 ft | 346 kts | 353° |
| 2026-04-12 05:21 | 43.00879 | -87.84190 | 6487 ft | 346 kts | 353° |
| 2026-04-12 05:22 | 43.03258 | -87.84365 | 6052 ft | 334 kts | 353° |
| 2026-04-12 05:22 | 43.05523 | -87.84529 | 5683 ft | 318 kts | 353° |
| 2026-04-12 05:22 | 43.07673 | -87.84686 | 5374 ft | 303 kts | 353° |
| 2026-04-12 05:22 | 43.09727 | -87.84838 | 5184 ft | 286 kts | 352° |
| 2026-04-12 05:23 | 43.11647 | -87.84980 | 5084 ft | 265 kts | 352° |
| 2026-04-12 05:23 | 43.13420 | -87.85111 | 4936 ft | 245 kts | 352° |
| 2026-04-12 05:23 | 43.15045 | -87.85232 | 4783 ft | 228 kts | 352° |
| 2026-04-12 05:23 | 43.16575 | -87.85345 | 4661 ft | 211 kts | 352° |
| 2026-04-12 05:24 | 43.18011 | -87.85477 | 4647 ft | 204 kts | 343° |
| 2026-04-12 05:24 | 43.19257 | -87.86293 | 4679 ft | 199 kts | 318° |
| 2026-04-12 05:24 | 43.20450 | -87.87330 | 4664 ft | 204 kts | 320° |
| 2026-04-12 05:24 | 43.21665 | -87.88343 | 4673 ft | 204 kts | 321° |
| 2026-04-12 05:25 | 43.22889 | -87.89351 | 4664 ft | 205 kts | 321° |
| 2026-04-12 05:25 | 43.24119 | -87.90357 | 4658 ft | 206 kts | 324° |
| 2026-04-12 05:25 | 43.25546 | -87.90764 | 4643 ft | 218 kts | 6° |
| 2026-04-12 05:25 | 43.26865 | -87.89853 | 4646 ft | 217 kts | 50° |
| 2026-04-12 05:26 | 43.27507 | -87.88076 | 4658 ft | 205 kts | 91° |
| 2026-04-12 05:26 | 43.27285 | -87.86252 | 4660 ft | 188 kts | 127° |
| 2026-04-12 05:26 | 43.26460 | -87.84973 | 4626 ft | 172 kts | 156° |
| 2026-04-12 05:26 | 43.25390 | -87.84411 | 4219 ft | 162 kts | 177° |
| 2026-04-12 05:27 | 43.24293 | -87.84448 | 3805 ft | 155 kts | 188° |
| 2026-04-12 05:27 | 43.23227 | -87.84614 | 3373 ft | 153 kts | 187° |
| 2026-04-12 05:27 | 43.22179 | -87.84781 | 2940 ft | 150 kts | 186° |
| 2026-04-12 05:27 | 43.21196 | -87.84943 | 2839 ft | 133 kts | 186° |
| 2026-04-12 05:28 | 43.20302 | -87.85095 | 2820 ft | 128 kts | 187° |
| 2026-04-12 05:28 | 43.19406 | -87.85248 | 2818 ft | 129 kts | 186° |
| 2026-04-12 05:28 | 43.18531 | -87.85398 | 2806 ft | 127 kts | 186° |
| 2026-04-12 05:28 | 43.17649 | -87.85549 | 2818 ft | 129 kts | 186° |
| 2026-04-12 05:29 | 43.16752 | -87.85703 | 2819 ft | 130 kts | 186° |
| 2026-04-12 05:29 | 43.15848 | -87.85858 | 2821 ft | 131 kts | 187° |
| 2026-04-12 05:29 | 43.14984 | -87.86006 | 2830 ft | 117 kts | 187° |
| 2026-04-12 05:29 | 43.14209 | -87.86139 | 2808 ft | 109 kts | 187° |
| 2026-04-12 05:30 | 43.13451 | -87.86269 | 2808 ft | 109 kts | 187° |
| 2026-04-12 05:30 | 43.12703 | -87.86397 | 2808 ft | 108 kts | 187° |
| 2026-04-12 05:30 | 43.11964 | -87.86523 | 2805 ft | 107 kts | 187° |
| 2026-04-12 05:30 | 43.11224 | -87.86650 | 2817 ft | 107 kts | 187° |
| 2026-04-12 05:31 | 43.10478 | -87.86778 | 2820 ft | 109 kts | 187° |
| 2026-04-12 05:31 | 43.09730 | -87.86906 | 2817 ft | 110 kts | 187° |
| 2026-04-12 05:31 | 43.08971 | -87.87036 | 2820 ft | 110 kts | 187° |
| 2026-04-12 05:31 | 43.08220 | -87.87165 | 2798 ft | 108 kts | 187° |
| 2026-04-12 05:32 | 43.07483 | -87.87291 | 2805 ft | 106 kts | 187° |
| 2026-04-12 05:32 | 43.06752 | -87.87417 | 2790 ft | 106 kts | 187° |
| 2026-04-12 05:32 | 43.06014 | -87.87544 | 2782 ft | 109 kts | 187° |
| 2026-04-12 05:32 | 43.05262 | -87.87672 | 2638 ft | 107 kts | 186° |
| 2026-04-12 05:33 | 43.04540 | -87.87796 | 2513 ft | 104 kts | 186° |
| 2026-04-12 05:33 | 43.03809 | -87.87920 | 2369 ft | 107 kts | 186° |
| 2026-04-12 05:33 | 43.03067 | -87.88049 | 2219 ft | 106 kts | 185° |
| 2026-04-12 05:33 | 43.02355 | -87.88171 | 2080 ft | 103 kts | 184° |
| 2026-04-12 05:34 | 43.01635 | -87.88294 | 1937 ft | 105 kts | 184° |
| 2026-04-12 05:34 | 43.00896 | -87.88419 | 1782 ft | 110 kts | 185° |
| 2026-04-12 05:34 | 43.00121 | -87.88553 | 1630 ft | 115 kts | 185° |
| 2026-04-12 05:34 | 42.99303 | -87.88677 | 1478 ft | 121 kts | 182° |
| 2026-04-12 05:35 | 42.98437 | -87.88809 | 1284 ft | 129 kts | 189° |
| 2026-04-12 05:35 | 42.97555 | -87.89008 | 1150 ft | 127 kts | 185° |
| 2026-04-12 05:35 | 42.96662 | -87.89157 | 949 ft | 132 kts | 185° |
| 2026-04-12 05:35 | 42.95766 | -87.89292 | 778 ft | 131 kts | 183° |
| 2026-04-12 05:36 | 42.94894 | -87.89435 | 676 ft | 116 kts | 186° |
| 2026-04-12 05:36 | 42.94430 | -87.89513 | 680 ft | 30 kts | 186° |
| 2026-04-12 05:36 | 42.94226 | -87.89563 | 680 ft | 29 kts | 193° |
| 2026-04-12 05:36 | 42.94059 | -87.89685 | 678 ft | 27 kts | 230° |
| 2026-04-12 05:37 | 42.94092 | -87.89868 | 681 ft | 21 kts | 334° |
| 2026-04-12 05:37 | 42.94229 | -87.89909 | 677 ft | 20 kts | 350° |
| 2026-04-12 05:37 | 42.94365 | -87.89942 | 680 ft | 20 kts | 353° |
| 2026-04-12 05:37 | 42.94494 | -87.89987 | 679 ft | 19 kts | 322° |
| 2026-04-12 05:38 | 42.94535 | -87.90072 | 679 ft | 10 kts | 317° |
| 2026-04-12 05:38 | 42.94551 | -87.90091 | 679 ft | 0 kts | 319° |